Main page
METAR-TAF:

METAR-TAF

Airports :

Oil platform

Ula, Norway

latitude: 59-06-39N, longitude: 2-50-45E, elevation: 0 m

Current weather observation

The report was made 39 minutes ago, at 20:50 UTC
Wind 13 kt from the South/Southeast
Temperature 7°C
Humidity 100%
Pressure 1022 hPa
Visibility: 0100 m
fog

METAR: ENLA 202050Z AUTO 16013KT 0100NDV FG NCD 07/07 Q1022 W///S3

Time: 23:29 (21:29 UTC)


TAF: missing

Weather observations and forecasts of more than 4000 airports (METAR and TAF reports).

The available stations are represented by yellow and red dots on the map.

Hover mouse over dot to see the name of the station.

Then click to see weather observations and forecasts.

To change the map : click on the green buttons with a black cross to zoom in, on the green button with a dash to zoom out, or on the green arrows for adjacent maps.


METAR-TAF: